Time;durP1;ratioP1;P1;durP2;ratioP2;P2;SDS_P1;SDS_P2;PMS_P1;PMS_P2;Temp;Humidity;BMP_temperature;BMP_pressure;BME280_temperature;BME280_humidity;BME280_pressure;Samples;Min_cycle;Max_cycle;Signal;HPM_P1;HPM_P2
2022/07/25 00:02:00;;;;;;;3.33;2.70;;;;;;;22.06;52.35;100504.56;5590417;31;34084;-71
2022/07/25 00:05:04;;;;;;;5.20;2.60;;;;;;;21.97;52.49;100500.63;5590136;31;33877;-71
2022/07/25 00:08:07;;;;;;;4.70;2.97;;;;;;;21.94;52.63;100505.66;5589259;31;34635;-71
2022/07/25 00:11:10;;;;;;;4.28;2.83;;;;;;;21.96;52.73;100501.66;5590065;31;33934;-70
2022/07/25 00:14:12;;;;;;;3.83;2.60;;;;;;;21.86;52.54;100501.44;5589919;31;34163;-69
2022/07/25 00:17:15;;;;;;;3.67;2.45;;;;;;;21.78;52.91;100491.00;5589838;31;33953;-70
2022/07/25 00:20:18;;;;;;;4.72;2.47;;;;;;;21.95;51.88;100491.91;5589945;31;34604;-70
2022/07/25 00:23:20;;;;;;;3.00;2.70;;;;;;;21.89;52.57;100492.00;5589863;31;33972;-71
2022/07/25 00:26:23;;;;;;;3.85;2.50;;;;;;;21.86;52.64;100501.44;5589832;31;34616;-70
2022/07/25 00:29:26;;;;;;;5.80;2.87;;;;;;;21.88;52.50;100493.88;5589042;31;34013;-71
2022/07/25 00:32:28;;;;;;;5.22;2.97;;;;;;;21.73;52.89;100499.00;5589393;31;35237;-70
2022/07/25 00:35:31;;;;;;;5.50;2.70;;;;;;;21.68;53.05;100496.19;5589672;31;33929;-71
2022/07/25 00:38:34;;;;;;;5.05;2.70;;;;;;;21.61;52.75;100495.47;5589840;31;33976;-70
2022/07/25 00:41:37;;;;;;;5.18;2.67;;;;;;;21.58;52.68;100494.09;5590302;31;34430;-71
2022/07/25 00:44:39;;;;;;;3.80;2.50;;;;;;;21.58;52.70;100494.09;5589666;31;34456;-70
2022/07/25 00:47:42;;;;;;;4.87;2.50;;;;;;;21.61;52.41;100492.78;5590064;31;34292;-70
2022/07/25 00:50:45;;;;;;;4.85;2.70;;;;;;;21.55;52.83;100496.41;5589665;31;34050;-71
2022/07/25 00:53:48;;;;;;;4.30;2.75;;;;;;;21.45;53.41;100497.00;5589209;31;34078;-71
2022/07/25 00:56:51;;;;;;;3.53;2.35;;;;;;;21.40;53.43;100491.50;5589588;31;33912;-71
2022/07/25 00:59:54;;;;;;;3.30;2.50;;;;;;;21.27;53.97;100491.75;5588835;31;34039;-71
2022/07/25 01:02:57;;;;;;;5.15;2.33;;;;;;;21.21;53.57;100495.38;5588835;31;33919;-71
2022/07/25 01:06:00;;;;;;;3.75;2.50;;;;;;;21.12;53.61;100489.50;5589070;31;32393;-71
2022/07/25 01:09:03;;;;;;;2.80;2.40;;;;;;;21.10;54.46;100488.91;5589512;31;33963;-71
2022/07/25 01:12:06;;;;;;;3.00;2.45;;;;;;;21.07;54.31;100486.66;5588778;31;33900;-71
2022/07/25 01:15:12;;;;;;;3.40;2.30;;;;;;;21.01;54.21;100492.19;5589325;31;34126;-71
2022/07/25 01:18:16;;;;;;;3.30;2.25;;;;;;;20.95;54.52;100483.16;5589389;31;33523;-71
2022/07/25 01:21:18;;;;;;;3.70;2.30;;;;;;;20.88;55.20;100484.31;5589401;31;35267;-71
2022/07/25 01:24:21;;;;;;;3.10;2.60;;;;;;;20.84;54.85;100489.34;5589292;31;33879;-71
2022/07/25 01:27:24;;;;;;;3.50;2.58;;;;;;;20.87;55.05;100488.03;5589280;31;34699;-71
2022/07/25 01:30:27;;;;;;;2.72;2.22;;;;;;;20.80;55.06;100490.88;5589585;31;34046;-70
2022/07/25 01:33:29;;;;;;;4.43;2.62;;;;;;;20.78;55.36;100490.28;5589109;31;33985;-71
2022/07/25 01:36:32;;;;;;;3.72;2.50;;;;;;;20.78;55.48;100482.19;5588282;31;32282;-71
2022/07/25 01:39:35;;;;;;;4.03;2.45;;;;;;;20.74;55.62;100478.31;5588285;31;32459;-71
2022/07/25 01:42:38;;;;;;;3.60;2.42;;;;;;;20.70;55.96;100475.25;5587771;31;34130;-71
2022/07/25 01:45:40;;;;;;;3.05;2.45;;;;;;;20.70;56.06;100477.97;5588487;31;34114;-71
2022/07/25 01:48:43;;;;;;;4.87;2.85;;;;;;;20.68;56.06;100476.53;5589033;31;33877;-71
2022/07/25 01:51:46;;;;;;;6.68;2.65;;;;;;;20.61;56.52;100473.12;5575199;31;34749;-71
2022/07/25 01:54:50;;;;;;;3.80;2.80;;;;;;;20.56;55.89;100476.53;5588891;31;34045;-71
2022/07/25 01:57:52;;;;;;;4.03;2.40;;;;;;;20.48;56.19;100476.81;5588738;31;34574;-70
2022/07/25 02:00:55;;;;;;;3.30;2.55;;;;;;;20.40;56.53;100479.84;5588744;31;35219;-70
2022/07/25 02:03:58;;;;;;;4.32;2.90;;;;;;;20.45;57.79;100477.31;5588755;31;34678;-70
2022/07/25 02:07:02;;;;;;;4.82;2.70;;;;;;;20.35;57.19;100477.84;5587822;31;33605;-70
2022/07/25 02:10:08;;;;;;;2.83;2.53;;;;;;;20.34;57.64;100470.00;5588982;31;34040;-70
2022/07/25 02:13:11;;;;;;;3.42;2.70;;;;;;;20.32;58.47;100474.81;5588596;31;34592;-70
2022/07/25 02:16:14;;;;;;;5.40;2.78;;;;;;;20.26;60.09;100468.44;5587618;31;34257;-70
2022/07/25 02:19:16;;;;;;;10.30;3.45;;;;;;;20.18;61.15;100474.13;5587505;31;33857;-70
2022/07/25 02:22:19;;;;;;;14.52;3.60;;;;;;;20.11;65.40;100472.56;5588431;31;33925;-70
2022/07/25 02:25:22;;;;;;;4.80;2.75;;;;;;;20.06;64.90;100469.72;5588329;31;34654;-70
2022/07/25 02:28:24;;;;;;;4.78;2.75;;;;;;;19.99;63.24;100471.72;5588310;31;33900;-70
2022/07/25 02:31:27;;;;;;;4.25;2.72;;;;;;;19.92;61.86;100477.16;5582738;31;154135;-70
2022/07/25 02:34:30;;;;;;;4.20;2.53;;;;;;;19.88;61.60;100473.28;5587316;31;33554;-70
2022/07/25 02:37:32;;;;;;;5.40;3.20;;;;;;;20.26;58.60;100481.91;5588503;31;33906;-70
2022/07/25 02:40:35;;;;;;;3.95;2.47;;;;;;;20.21;57.84;100479.06;5588114;31;34307;-70
2022/07/25 02:43:38;;;;;;;4.25;2.72;;;;;;;20.26;57.60;100484.59;5588027;31;34404;-70
2022/07/25 02:46:41;;;;;;;3.83;2.65;;;;;;;20.03;57.99;100486.34;5588329;31;34843;-70
2022/07/25 02:49:43;;;;;;;4.22;2.90;;;;;;;19.87;58.87;100490.47;5588005;31;34562;-70
2022/07/25 02:52:46;;;;;;;4.40;2.90;;;;;;;19.75;59.23;100489.59;5588183;31;33900;-70
2022/07/25 02:55:49;;;;;;;4.07;2.95;;;;;;;19.64;59.46;100491.16;5589643;31;34020;-70
2022/07/25 02:58:52;;;;;;;5.55;2.60;;;;;;;19.57;59.81;100503.03;5589348;31;32598;-69
2022/07/25 03:01:54;;;;;;;4.53;2.65;;;;;;;19.86;59.86;100500.44;5590599;31;33981;-69
2022/07/25 03:04:57;;;;;;;5.20;3.00;;;;;;;20.06;58.54;100496.66;5590585;31;34623;-69
2022/07/25 03:08:00;;;;;;;4.45;3.25;;;;;;;19.86;59.58;100507.69;5589872;31;34002;-70
2022/07/25 03:11:03;;;;;;;3.75;2.58;;;;;;;19.74;60.06;100502.25;5590842;31;35317;-70
2022/07/25 03:14:07;;;;;;;6.62;3.10;;;;;;;19.78;60.67;100502.59;5590459;31;35190;-69
2022/07/25 03:17:10;;;;;;;4.25;3.00;;;;;;;19.78;62.07;100499.91;5589488;31;34181;-70
2022/07/25 03:20:13;;;;;;;5.35;3.30;;;;;;;19.54;63.99;100515.09;5590268;31;33820;-70
2022/07/25 03:23:16;;;;;;;5.47;3.25;;;;;;;19.37;65.15;100513.97;5590297;31;34043;-70
2022/07/25 03:26:19;;;;;;;3.62;3.00;;;;;;;19.55;64.86;100515.91;5590368;31;34014;-70
2022/07/25 03:29:22;;;;;;;7.07;3.17;;;;;;;19.43;65.56;100518.47;5589708;31;33262;-70
2022/07/25 03:32:25;;;;;;;4.68;3.00;;;;;;;19.34;66.06;100511.72;5589437;31;33377;-70
2022/07/25 03:35:28;;;;;;;5.15;3.28;;;;;;;19.47;65.94;100517.00;5589228;31;33327;-69
2022/07/25 03:38:30;;;;;;;3.65;3.12;;;;;;;19.47;66.26;100517.00;5590120;31;34584;-70
2022/07/25 03:41:33;;;;;;;5.15;3.03;;;;;;;19.43;66.30;100515.78;5590077;31;33899;-69
2022/07/25 03:44:36;;;;;;;6.28;3.17;;;;;;;19.31;67.07;100515.69;5589446;31;35298;-70
2022/07/25 03:47:39;;;;;;;4.45;3.28;;;;;;;19.39;66.90;100520.78;5590244;31;34607;-70
2022/07/25 03:50:42;;;;;;;5.20;3.50;;;;;;;19.66;66.37;100515.97;5590513;31;34650;-69
2022/07/25 03:54:03;;;;;;;6.25;3.53;;;;;;;19.54;66.76;100520.47;5590115;31;34044;-69
2022/07/25 03:57:06;;;;;;;9.00;3.28;;;;;;;19.49;67.36;100520.31;5590099;31;34094;-70
2022/07/25 04:00:11;;;;;;;4.75;3.30;;;;;;;19.60;67.05;100516.91;5590060;31;33978;-70
2022/07/25 04:03:14;;;;;;;5.68;3.22;;;;;;;19.60;67.39;100513.38;5590073;31;34352;-70
2022/07/25 04:06:17;;;;;;;4.10;3.37;;;;;;;19.58;67.18;100510.91;5589137;31;33956;-70
2022/07/25 04:09:23;;;;;;;3.97;3.20;;;;;;;19.65;66.04;100517.06;5590209;31;34017;-70
2022/07/25 04:12:26;;;;;;;5.45;3.05;;;;;;;19.80;65.67;100524.75;5589991;31;35275;-70
2022/07/25 04:15:29;;;;;;;4.95;3.15;;;;;;;19.86;66.37;100515.75;5589911;31;34106;-70
2022/07/25 04:18:32;;;;;;;4.72;3.00;;;;;;;19.94;68.34;100520.84;5588858;31;34363;-70
2022/07/25 04:21:35;;;;;;;8.52;3.35;;;;;;;19.97;66.01;100520.41;5589088;31;34634;-70
2022/07/25 04:24:38;;;;;;;9.80;3.33;;;;;;;20.10;65.12;100528.31;5590021;31;34040;-70
2022/07/25 04:27:42;;;;;;;5.15;2.90;;;;;;;20.24;64.27;100520.88;5589899;31;34221;-70
2022/07/25 04:30:44;;;;;;;5.12;3.33;;;;;;;20.36;64.79;100519.09;5589775;31;34560;-70
2022/07/25 04:33:47;;;;;;;5.35;3.40;;;;;;;20.39;64.82;100526.72;5589554;31;35152;-70
2022/07/25 04:36:50;;;;;;;5.97;3.60;;;;;;;20.36;64.53;100536.09;5589832;31;34802;-70
2022/07/25 04:39:52;;;;;;;4.95;3.50;;;;;;;20.41;63.21;100535.41;5589568;31;34039;-69
2022/07/25 04:42:55;;;;;;;5.07;3.30;;;;;;;20.56;60.75;100537.69;5589680;31;33879;-68
2022/07/25 04:45:58;;;;;;;4.32;3.10;;;;;;;20.97;58.88;100524.19;5589633;31;33952;-68
2022/07/25 04:49:01;;;;;;;5.90;3.33;;;;;;;21.09;59.41;100522.34;5589467;31;34253;-68
2022/07/25 04:52:04;;;;;;;4.65;3.50;;;;;;;20.99;59.70;100526.66;5589646;31;34343;-68
2022/07/25 04:55:07;;;;;;;6.47;3.33;;;;;;;21.02;59.41;100523.50;5588776;31;35217;-68
2022/07/25 04:58:10;;;;;;;8.80;3.53;;;;;;;21.18;58.99;100529.06;5589422;31;34122;-71
2022/07/25 05:01:13;;;;;;;7.87;2.95;;;;;;;21.14;59.14;100532.47;5589580;31;34684;-70
2022/07/25 05:04:16;;;;;;;7.22;3.25;;;;;;;21.13;58.84;100525.37;5588882;31;34049;-70
2022/07/25 05:07:18;;;;;;;5.45;3.30;;;;;;;21.18;58.71;100528.25;5589388;31;34019;-70
2022/07/25 05:10:21;;;;;;;4.75;3.17;;;;;;;21.24;59.25;100527.31;5588377;31;33937;-70
2022/07/25 05:13:24;;;;;;;3.58;2.85;;;;;;;21.28;58.36;100527.66;5589318;31;34441;-69
2022/07/25 05:16:27;;;;;;;5.40;3.08;;;;;;;21.43;57.33;100525.31;5589263;31;34822;-69
2022/07/25 05:19:29;;;;;;;4.03;2.87;;;;;;;21.55;57.48;100520.72;5588894;31;34915;-69
2022/07/25 05:22:32;;;;;;;7.55;3.05;;;;;;;21.66;56.46;100523.41;5588816;31;32467;-69
2022/07/25 05:25:36;;;;;;;3.92;2.90;;;;;;;21.84;56.57;100535.13;5589236;31;34049;-69
2022/07/25 05:28:39;;;;;;;5.45;2.78;;;;;;;21.91;55.57;100525.84;5589133;31;34020;-69
2022/07/25 05:31:41;;;;;;;5.75;3.08;;;;;;;21.99;55.65;100520.09;5588162;31;33952;-69
2022/07/25 05:34:44;;;;;;;5.80;3.12;;;;;;;22.16;55.46;100513.94;5588370;31;34608;-69
2022/07/25 05:37:47;;;;;;;5.78;3.17;;;;;;;22.32;53.43;100519.38;5587990;31;32590;-69
2022/07/25 05:40:51;;;;;;;3.85;2.70;;;;;;;22.41;54.35;100514.44;5588793;31;34035;-69
2022/07/25 05:43:53;;;;;;;4.35;2.80;;;;;;;22.50;52.21;100513.81;5588849;31;34334;-69
2022/07/25 05:46:56;;;;;;;4.87;3.08;;;;;;;22.61;51.43;100517.50;5588556;31;35112;-69
2022/07/25 05:49:59;;;;;;;5.32;2.67;;;;;;;22.76;49.87;100515.09;5587847;31;33671;-69
2022/07/25 05:53:02;;;;;;;8.00;3.30;;;;;;;22.87;50.59;100516.91;5588141;31;34649;-68
2022/07/25 05:56:05;;;;;;;5.00;2.62;;;;;;;22.91;50.14;100514.53;5588391;31;33873;-68
2022/07/25 05:59:08;;;;;;;5.80;2.80;;;;;;;22.90;50.89;100512.88;5588030;31;35189;-68
2022/07/25 06:02:10;;;;;;;4.78;2.80;;;;;;;23.07;50.29;100515.59;5588640;31;34035;-68
2022/07/25 06:05:13;;;;;;;6.40;2.80;;;;;;;23.20;49.77;100515.25;5588567;31;34034;-68
2022/07/25 06:08:16;;;;;;;6.53;2.97;;;;;;;23.24;48.59;100519.94;5588424;31;33954;-68
2022/07/25 06:11:19;;;;;;;3.15;2.75;;;;;;;23.24;48.83;100524.53;5587662;31;34372;-68
2022/07/25 06:14:22;;;;;;;6.70;3.20;;;;;;;23.29;48.70;100517.31;5588567;31;34246;-69
2022/07/25 06:17:26;;;;;;;6.90;2.87;;;;;;;23.42;48.48;100513.44;5587424;31;34017;-69
2022/07/25 06:20:33;;;;;;;4.32;2.60;;;;;;;23.61;48.32;100514.00;5587089;31;34284;-68
2022/07/25 06:23:36;;;;;;;4.03;2.12;;;;;;;23.77;47.55;100511.25;5587967;31;34009;-68
2022/07/25 06:26:39;;;;;;;3.53;2.45;;;;;;;23.91;47.96;100510.88;5587515;31;32597;-67
2022/07/25 06:29:42;;;;;;;4.25;2.80;;;;;;;24.07;47.38;100501.84;5575156;31;33634;-68
2022/07/25 06:32:44;;;;;;;9.05;2.67;;;;;;;24.27;46.71;100514.84;5590502;31;34038;-68
2022/07/25 06:35:47;;;;;;;2.87;2.35;;;;;;;24.37;46.57;100507.66;5590472;31;35195;-67
2022/07/25 06:38:50;;;;;;;2.92;2.30;;;;;;;24.48;45.58;100508.59;5590739;31;33962;-67
2022/07/25 06:41:53;;;;;;;3.72;2.50;;;;;;;24.64;44.61;100500.31;5590760;31;34012;-67
2022/07/25 06:44:55;;;;;;;3.72;2.60;;;;;;;24.68;45.32;100512.31;5589458;31;33294;-68
2022/07/25 06:47:58;;;;;;;3.97;2.50;;;;;;;24.70;44.36;100506.62;5590742;31;34672;-68
2022/07/25 06:51:01;;;;;;;4.25;2.30;;;;;;;24.83;45.22;100494.53;5589603;31;34327;-68
2022/07/25 06:54:04;;;;;;;4.53;2.25;;;;;;;24.95;44.25;100490.59;5589836;31;33871;-68
2022/07/25 06:57:07;;;;;;;4.37;2.10;;;;;;;25.03;43.89;100495.53;5590394;31;35178;-67
2022/07/25 07:00:12;;;;;;;6.40;2.58;;;;;;;25.21;43.77;100491.59;5590454;31;34067;-66
2022/07/25 07:03:14;;;;;;;3.20;2.37;;;;;;;25.47;43.52;100496.09;5590191;31;34520;-67
2022/07/25 07:06:17;;;;;;;3.05;1.92;;;;;;;25.74;41.55;100487.84;5590424;31;34093;-68
2022/07/25 07:09:19;;;;;;;3.80;2.20;;;;;;;25.91;41.14;100482.19;5590493;31;35218;-67
2022/07/25 07:12:22;;;;;;;6.37;2.37;;;;;;;26.09;41.26;100487.19;5590405;31;33867;-67
2022/07/25 07:15:25;;;;;;;5.32;2.30;;;;;;;26.31;40.56;100478.81;5590252;31;33933;-67
2022/07/25 07:18:28;;;;;;;4.10;2.28;;;;;;;26.53;40.20;100479.38;5588993;31;34001;-68
2022/07/25 07:21:31;;;;;;;3.35;2.28;;;;;;;26.66;40.05;100484.31;5588936;31;33374;-69
2022/07/25 07:24:34;;;;;;;4.95;2.28;;;;;;;27.04;39.32;100479.44;5590155;31;35149;-67
2022/07/25 07:27:45;;;;;;;3.80;2.35;;;;;;;27.33;38.13;100482.38;5589187;31;32665;-68
2022/07/25 07:30:49;;;;;;;5.30;2.10;;;;;;;27.07;37.89;100478.88;5589433;31;34086;-68
2022/07/25 07:34:12;;;;;;;4.22;2.10;;;;;;;28.04;37.42;100485.69;5589788;31;34542;-68
2022/07/25 07:37:18;;;;;;;3.62;2.20;;;;;;;29.38;35.32;100477.94;5589402;31;31801;-70
2022/07/25 07:40:21;;;;;;;6.72;2.28;;;;;;;30.08;33.71;100470.78;5575706;31;32718;-68
2022/07/25 07:43:24;;;;;;;3.12;1.90;;;;;;;30.81;31.79;100481.19;5589486;31;33508;-69
2022/07/25 07:46:31;;;;;;;3.15;2.08;;;;;;;31.52;30.37;100476.41;5576495;31;32484;-69
2022/07/25 07:49:34;;;;;;;2.33;1.70;;;;;;;31.44;30.48;100478.72;5590107;31;33898;-70
2022/07/25 07:52:38;;;;;;;2.35;1.67;;;;;;;31.20;30.64;100469.84;5589137;31;32647;-69
2022/07/25 07:55:44;;;;;;;4.07;1.95;;;;;;;31.76;30.48;100471.50;5589907;31;34059;-69
2022/07/25 07:58:47;;;;;;;3.03;1.75;;;;;;;32.73;28.29;100471.00;5589019;31;33057;-71
2022/07/25 08:01:50;;;;;;;2.37;1.67;;;;;;;32.53;27.83;100474.22;5575733;31;34201;-69
2022/07/25 08:04:53;;;;;;;4.37;1.90;;;;;;;32.47;28.11;100481.78;5589160;31;34644;-70
2022/07/25 08:07:56;;;;;;;3.80;1.70;;;;;;;32.97;28.13;100473.44;5589863;31;33898;-70
2022/07/25 08:11:01;;;;;;;2.70;1.95;;;;;;;33.10;27.33;100464.28;5589430;31;34503;-69
2022/07/25 08:14:05;;;;;;;3.92;1.90;;;;;;;34.00;26.54;100457.34;5589943;31;34350;-71
2022/07/25 08:17:09;;;;;;;3.90;2.20;;;;;;;34.05;25.25;100460.75;5588826;31;34350;-70
2022/07/25 08:20:22;;;;;;;3.25;1.87;;;;;;;34.47;24.74;100461.91;5589735;31;34568;-71
2022/07/25 08:23:43;;;;;;;3.72;1.80;;;;;;;34.00;26.06;100462.84;5588777;31;34195;-69
2022/07/25 08:26:46;;;;;;;4.05;1.85;;;;;;;34.75;24.80;100467.94;5588794;31;34763;-69
2022/07/25 08:29:49;;;;;;;4.12;1.80;;;;;;;34.82;24.07;100448.94;5588851;31;32738;-70
2022/07/25 08:32:58;;;;;;;1.98;1.77;;;;;;;34.63;24.96;100451.22;5589369;31;34561;-69
2022/07/25 08:36:01;;;;;;;3.00;1.83;;;;;;;33.95;25.00;100439.03;5589645;31;33897;-69
2022/07/25 08:39:04;;;;;;;2.30;1.75;;;;;;;34.42;24.58;100436.50;5589897;31;33934;-69
2022/07/25 08:42:07;;;;;;;8.52;1.92;;;;;;;35.65;24.40;100452.09;5589412;31;35205;-68
2022/07/25 08:45:18;;;;;;;4.60;1.75;;;;;;;36.52;23.22;100443.97;5589171;31;34562;-70
2022/07/25 08:48:25;;;;;;;4.53;2.20;;;;;;;35.75;23.78;100439.84;5589519;31;34025;-69
2022/07/25 08:51:28;;;;;;;3.40;1.80;;;;;;;35.09;24.01;100427.63;5589548;31;34458;-69
2022/07/25 08:54:31;;;;;;;2.47;1.90;;;;;;;35.97;23.48;100431.22;5588445;31;33436;-68
2022/07/25 08:57:40;;;;;;;2.83;1.70;;;;;;;36.57;22.74;100428.00;5588895;31;34616;-67
2022/07/25 09:00:46;;;;;;;4.53;2.08;;;;;;;36.15;21.85;100427.25;5589389;31;33959;-69
2022/07/25 09:03:50;;;;;;;3.87;1.83;;;;;;;35.50;23.09;100421.44;5589408;31;33878;-70
2022/07/25 09:06:52;;;;;;;4.00;2.10;;;;;;;36.03;23.45;100427.13;5588755;31;33018;-70
2022/07/25 09:09:55;;;;;;;3.42;2.12;;;;;;;36.24;22.15;100426.34;5575345;31;32762;-70
2022/07/25 09:13:03;;;;;;;3.05;2.05;;;;;;;35.60;23.90;100423.84;5589543;31;34715;-69
2022/07/25 09:16:06;;;;;;;2.65;1.70;;;;;;;35.09;24.09;100414.66;5589487;31;34713;-70
2022/07/25 09:19:19;;;;;;;6.18;2.08;;;;;;;36.85;21.55;100416.34;5588562;31;32733;-68
2022/07/25 09:22:22;;;;;;;6.70;2.42;;;;;;;36.37;21.60;100415.00;5589054;31;34026;-69
2022/07/25 09:25:29;;;;;;;3.80;1.90;;;;;;;36.45;22.27;100416.09;5589232;31;34147;-69
2022/07/25 09:28:42;;;;;;;5.35;1.98;;;;;;;37.69;20.51;100410.09;5589268;31;33908;-69
2022/07/25 09:31:46;;;;;;;3.15;1.85;;;;;;;38.92;19.53;100409.31;5589157;31;34042;-70
2022/07/25 09:34:49;;;;;;;3.97;1.95;;;;;;;39.56;18.91;100408.09;5589006;31;33954;-70
2022/07/25 09:37:52;;;;;;;2.95;2.03;;;;;;;40.41;17.59;100400.84;5589160;31;33976;-70
2022/07/25 09:41:00;;;;;;;4.40;2.10;;;;;;;39.12;18.39;100399.09;5575183;31;33259;-71
2022/07/25 09:44:13;;;;;;;2.65;1.67;;;;;;;39.87;17.56;100404.47;5588342;31;33478;-70
2022/07/25 09:47:16;;;;;;;4.90;1.80;;;;;;;40.86;17.29;100402.91;5587982;31;34247;-73
2022/07/25 09:50:21;;;;;;;1.92;1.73;;;;;;;39.94;17.21;100393.53;5588216;31;32441;-70
2022/07/25 09:53:23;;;;;;;4.22;1.92;;;;;;;38.54;19.08;100379.34;5588978;31;34338;-69
2022/07/25 09:56:26;;;;;;;4.15;1.87;;;;;;;39.25;18.49;100378.41;5588114;31;33216;-68
2022/07/25 09:59:29;;;;;;;3.47;2.60;;;;;;;39.17;18.16;100371.06;5575159;31;32773;-69
2022/07/25 10:02:54;;;;;;;2.53;1.90;;;;;;;38.16;19.52;100366.00;5588082;31;32713;-69
2022/07/25 10:06:09;;;;;;;7.62;1.85;;;;;;;39.52;18.99;100369.16;5587675;31;34104;-70
2022/07/25 10:09:13;;;;;;;1.85;1.58;;;;;;;39.55;17.64;100367.66;5587860;31;34583;-70
2022/07/25 10:12:22;;;;;;;5.12;1.90;;;;;;;39.55;17.87;100367.66;5587836;31;33655;-69
2022/07/25 10:15:25;;;;;;;4.05;2.00;;;;;;;40.62;16.30;100359.56;5588064;31;34776;-70
2022/07/25 10:18:29;;;;;;;2.40;1.80;;;;;;;40.35;16.39;100356.66;5587801;31;34016;-70
2022/07/25 10:21:32;;;;;;;3.62;1.75;;;;;;;40.69;15.90;100351.31;5587673;31;34064;-68
2022/07/25 10:24:37;;;;;;;3.20;1.83;;;;;;;40.10;16.77;100338.66;5587642;31;32458;-69
2022/07/25 10:27:48;;;;;;;4.00;2.03;;;;;;;39.39;17.32;100336.34;5588119;31;34898;-70
2022/07/25 10:30:57;;;;;;;1.90;1.73;;;;;;;41.96;15.69;100333.00;5574518;31;32816;-69
2022/07/25 10:34:05;;;;;;;5.55;1.90;;;;;;;40.86;16.59;100334.16;5587249;31;34063;-69
2022/07/25 10:37:12;;;;;;;2.35;2.08;;;;;;;42.11;15.64;100325.59;5588196;31;34093;-68
2022/07/25 10:40:31;;;;;;;5.25;2.10;;;;;;;40.51;16.31;100325.97;5587493;31;32356;-70
2022/07/25 10:43:38;;;;;;;2.05;1.85;;;;;;;43.14;14.27;100317.00;5587220;31;34717;-70
2022/07/25 10:46:43;;;;;;;2.53;1.65;;;;;;;42.99;14.42;100314.50;5574313;31;32846;-69
2022/07/25 10:49:46;;;;;;;5.35;2.17;;;;;;;39.95;16.92;100315.34;5587859;31;34507;-68
2022/07/25 10:53:10;;;;;;;8.43;2.58;;;;;;;42.86;15.04;100308.41;5576065;31;32785;-67
2022/07/25 10:56:18;;;;;;;3.05;1.95;;;;;;;44.35;13.81;100301.59;5587471;31;34697;-70
2022/07/25 10:59:37;;;;;;;4.15;1.85;;;;;;;43.32;14.68;100294.78;5587606;31;34233;-70
2022/07/25 11:02:41;;;;;;;4.47;2.03;;;;;;;43.17;14.50;100291.13;5587675;31;33259;-69
2022/07/25 11:05:45;;;;;;;2.22;1.73;;;;;;;43.73;14.29;100290.59;5586679;31;34643;-69
2022/07/25 11:08:48;;;;;;;2.42;1.92;;;;;;;42.62;14.84;100281.88;5587942;31;34013;-69
2022/07/25 11:11:54;;;;;;;4.47;2.12;;;;;;;43.64;13.84;100284.59;5587593;31;34682;-69
2022/07/25 11:15:06;;;;;;;2.67;2.08;;;;;;;42.62;14.89;100272.72;5586256;31;34283;-69
2022/07/25 11:18:10;;;;;;;3.97;1.90;;;;;;;43.97;13.77;100277.13;5589578;31;34121;-69
2022/07/25 11:21:13;;;;;;;3.10;1.77;;;;;;;45.57;12.11;100275.06;5590360;31;33908;-69
2022/07/25 11:24:18;;;;;;;2.95;1.87;;;;;;;45.52;11.82;100267.09;5589379;31;33135;-68
2022/07/25 11:27:32;;;;;;;3.67;1.70;;;;;;;44.54;12.71;100259.22;5589364;31;34662;-69
2022/07/25 11:30:35;;;;;;;3.75;2.00;;;;;;;46.06;11.76;100252.38;5576399;31;32664;-69
2022/07/25 11:33:41;;;;;;;3.78;1.87;;;;;;;45.81;12.22;100249.75;5588983;31;32865;-69
2022/07/25 11:36:44;;;;;;;4.90;1.77;;;;;;;46.81;11.09;100252.62;5576485;31;32521;-69
2022/07/25 11:39:47;;;;;;;3.28;1.90;;;;;;;46.80;11.52;100242.59;5589399;31;34117;-70
2022/07/25 11:42:53;;;;;;;2.10;1.45;;;;;;;45.77;12.31;100234.91;5589048;31;32523;-68
2022/07/25 11:46:02;;;;;;;3.30;1.87;;;;;;;45.46;12.26;100229.50;5590000;31;34107;-68
2022/07/25 11:49:06;;;;;;;4.57;2.08;;;;;;;45.07;12.44;100224.03;5575997;31;34007;-69
2022/07/25 11:52:32;;;;;;;3.08;1.92;;;;;;;45.14;12.84;100218.38;5588910;31;33610;-69
2022/07/25 11:55:39;;;;;;;2.45;1.73;;;;;;;45.15;12.70;100217.97;5589333;31;34659;-71
2022/07/25 11:58:48;;;;;;;2.12;1.87;;;;;;;45.46;11.08;100223.91;5590255;31;33960;-69
2022/07/25 12:01:51;;;;;;;5.90;1.80;;;;;;;44.11;12.23;100210.84;5589203;31;33449;-71
2022/07/25 12:05:00;;;;;;;2.78;1.70;;;;;;;45.21;11.38;100205.16;5590160;31;33932;-70
2022/07/25 12:08:11;;;;;;;2.03;1.60;;;;;;;43.76;11.25;100199.59;5590031;31;33947;-70
2022/07/25 12:11:21;;;;;;;2.42;1.80;;;;;;;45.62;10.35;100198.97;5589452;31;33522;-68
2022/07/25 12:14:24;;;;;;;1.40;1.30;;;;;;;47.74;9.18;100207.41;5589358;31;33631;-70
2022/07/25 12:17:26;;;;;;;3.50;1.42;;;;;;;47.29;8.39;100193.53;5589547;31;33935;-69
2022/07/25 12:20:32;;;;;;;2.72;1.37;;;;;;;47.89;8.39;100197.50;5589001;31;33447;-68
2022/07/25 12:23:35;;;;;;;2.85;1.73;;;;;;;48.23;8.42;100188.94;5576237;31;32832;-68
2022/07/25 12:26:38;;;;;;;2.55;1.70;;;;;;;48.90;8.16;100186.94;5589040;31;32557;-68
2022/07/25 12:29:41;;;;;;;1.95;1.70;;;;;;;47.32;9.30;100173.00;5588480;31;33476;-70
2022/07/25 12:32:44;;;;;;;2.67;1.35;;;;;;;48.09;8.90;100172.28;5575502;31;33509;-69
2022/07/25 12:35:47;;;;;;;2.05;1.67;;;;;;;47.49;8.79;100169.16;5589778;31;33976;-69
2022/07/25 12:38:50;;;;;;;1.80;1.40;;;;;;;47.76;8.44;100157.12;5589860;31;34322;-70
2022/07/25 12:41:53;;;;;;;2.53;1.45;;;;;;;49.96;7.61;100148.75;5589010;31;34039;-70
2022/07/25 12:44:55;;;;;;;2.72;1.48;;;;;;;48.29;8.50;100150.62;5575804;31;33686;-71
2022/07/25 12:47:58;;;;;;;3.05;1.77;;;;;;;47.42;9.34;100162.81;5589116;31;32425;-68
2022/07/25 12:51:01;;;;;;;3.67;1.95;;;;;;;45.87;9.88;100137.16;5576150;31;32540;-70
2022/07/25 12:54:04;;;;;;;3.97;1.62;;;;;;;45.87;9.95;100137.97;5588976;31;35451;-69
2022/07/25 12:57:09;;;;;;;5.00;1.50;;;;;;;47.01;9.84;100129.25;5590021;31;34668;-68
2022/07/25 13:00:17;;;;;;;2.12;1.52;;;;;;;46.56;9.93;100128.56;5589647;31;34613;-68
2022/07/25 13:03:20;;;;;;;2.08;1.35;;;;;;;48.35;9.18;100123.62;5589440;31;34164;-69
2022/07/25 13:06:23;;;;;;;2.83;1.58;;;;;;;47.65;9.38;100119.94;5589611;31;34053;-69
2022/07/25 13:09:26;;;;;;;2.97;1.70;;;;;;;50.32;8.18;100111.13;5588964;31;32297;-69
2022/07/25 13:12:29;;;;;;;2.17;1.50;;;;;;;47.79;9.14;100106.44;5575950;31;32494;-68
2022/07/25 13:15:32;;;;;;;1.83;1.67;;;;;;;48.50;9.03;100096.78;5575395;31;34161;-69
2022/07/25 13:18:36;;;;;;;3.75;1.70;;;;;;;49.14;8.27;100098.31;5589325;31;34676;-69
2022/07/25 13:21:39;;;;;;;2.08;1.50;;;;;;;48.12;8.93;100099.09;5588567;31;33887;-68
2022/07/25 13:24:42;;;;;;;2.35;1.65;;;;;;;47.68;9.08;100088.97;5589695;31;33951;-68
2022/07/25 13:27:47;;;;;;;3.15;1.60;;;;;;;49.25;8.14;100079.12;5589233;31;33978;-71
2022/07/25 13:30:50;;;;;;;4.75;1.50;;;;;;;49.08;8.79;100069.06;5588496;31;33712;-70
2022/07/25 13:33:53;;;;;;;2.87;1.50;;;;;;;50.20;8.07;100076.00;5588916;31;34124;-69
2022/07/25 13:36:56;;;;;;;2.50;1.55;;;;;;;49.19;9.16;100072.44;5589151;31;33977;-70
2022/07/25 13:39:58;;;;;;;2.42;1.70;;;;;;;49.39;8.17;100058.25;5587080;31;32564;-71
2022/07/25 13:43:01;;;;;;;2.85;1.60;;;;;;;47.82;8.68;100062.62;5587615;31;32565;-71
2022/07/25 13:46:04;;;;;;;3.42;1.65;;;;;;;49.59;7.83;100061.81;5588444;31;34047;-70
2022/07/25 13:49:07;;;;;;;1.77;1.40;;;;;;;48.13;8.49;100057.66;5588730;31;33927;-69
2022/07/25 13:52:11;;;;;;;2.67;1.45;;;;;;;48.42;8.69;100050.28;5587816;31;32684;-70
2022/07/25 13:55:13;;;;;;;2.12;1.60;;;;;;;48.76;8.28;100039.53;5588249;31;33565;-69
2022/07/25 13:58:16;;;;;;;1.90;1.65;;;;;;;47.88;8.91;100042.00;5588642;31;34748;-70
2022/07/25 14:01:19;;;;;;;3.55;1.52;;;;;;;49.61;8.33;100029.12;5588011;31;32429;-70
2022/07/25 14:04:22;;;;;;;3.17;1.67;;;;;;;51.37;7.60;100030.13;5574493;31;33177;-71
2022/07/25 14:07:25;;;;;;;2.78;1.40;;;;;;;52.17;7.30;100035.50;5587373;31;33265;-70
2022/07/25 14:10:28;;;;;;;4.35;1.77;;;;;;;49.65;8.69;100019.78;5587519;31;34043;-69
2022/07/25 14:13:31;;;;;;;4.45;1.80;;;;;;;49.36;9.36;100006.37;5587922;31;34585;-69
2022/07/25 14:16:34;;;;;;;5.62;1.87;;;;;;;49.85;7.88;100006.37;5588081;31;33799;-70
2022/07/25 14:19:37;;;;;;;5.05;1.42;;;;;;;47.79;9.84;99996.78;5587827;31;34083;-70